Weather at Münster Osnabrück Airport

Public forecast

Using degrees Celsius for public forecast. Weather courtesy of forecast.io.

Current aviation weather report (METAR) for Münster Osnabrück Airport

Report is more than 6 hours old.

Retrieved 2022/09/17 18:50 UTC (8 days ago):

EDDG 171850Z AUTO 27009KT 9999 FEW039 SCT047 11/07 Q1012 NOSIG

Aviation forecast (TAF) for Münster Osnabrück Airport

Forecast is more than 12 hours old.

Retrieved 2022/09/17 18:29 UTC (8 days ago):

TAF EDDG 171700Z 1718/1818 26009KT 9999 FEW040 TEMPO 1803/1809 RA BKN009 BECMG 1806/1809 27014KT TEMPO 1809/1815 27015G25KT SHRA BKN020CB